Time;durP1;ratioP1;P1;durP2;ratioP2;P2;SDS_P1;SDS_P2;PMS_P1;PMS_P2;Temp;Humidity;BMP_temperature;BMP_pressure;BME280_temperature;BME280_humidity;BME280_pressure;Samples;Min_cycle;Max_cycle;Signal;HPM_P1;HPM_P2
2023/08/17 00:01:44;;;;;;;2.08;1.40;;;28.00;56.90;;;;;;5078916;28;20024;-62
2023/08/17 00:04:10;;;;;;;1.42;1.30;;;27.90;56.90;;;;;;5075855;28;20358;-62
2023/08/17 00:06:35;;;;;;;1.60;1.27;;;27.90;56.80;;;;;;5078667;28;20032;-64
2023/08/17 00:09:01;;;;;;;1.85;1.30;;;27.90;56.80;;;;;;5076580;28;20471;-62
2023/08/17 00:11:26;;;;;;;1.70;1.30;;;27.90;56.80;;;;;;5080782;28;20027;-62
2023/08/17 00:13:52;;;;;;;1.65;1.40;;;27.90;56.80;;;;;;5083008;28;20039;-64
2023/08/17 00:16:18;;;;;;;1.88;1.38;;;27.90;56.80;;;;;;5081705;28;20525;-63
2023/08/17 00:18:44;;;;;;;1.95;1.40;;;27.90;56.80;;;;;;5079074;28;20024;-64
2023/08/17 00:21:09;;;;;;;1.73;1.27;;;27.90;56.80;;;;;;5082939;28;20028;-61
2023/08/17 00:23:35;;;;;;;1.77;1.35;;;27.90;56.80;;;;;;5080635;28;20054;-63
2023/08/17 00:26:01;;;;;;;1.90;1.40;;;27.90;56.80;;;;;;5080523;28;20028;-64
2023/08/17 00:28:26;;;;;;;1.75;1.40;;;27.90;56.80;;;;;;5081776;28;20024;-64
2023/08/17 00:30:52;;;;;;;1.52;1.25;;;27.90;56.80;;;;;;5082729;28;20035;-64
2023/08/17 00:33:18;;;;;;;1.80;1.30;;;27.90;56.80;;;;;;5079894;28;20452;-65
2023/08/17 00:35:45;;;;;;;1.63;1.20;;;27.90;56.80;;;;;;5082076;28;20137;-64
2023/08/17 00:38:11;;;;;;;2.00;1.50;;;27.90;56.80;;;;;;5081509;28;20028;-64
2023/08/17 00:40:37;;;;;;;1.80;1.30;;;27.90;56.80;;;;;;5082154;28;20495;-65
2023/08/17 00:43:02;;;;;;;1.25;1.15;;;27.90;56.80;;;;;;5079757;28;20507;-64
2023/08/17 00:45:29;;;;;;;2.33;1.60;;;27.90;56.80;;;;;;5081004;28;20356;-64
2023/08/17 00:47:57;;;;;;;1.50;1.30;;;27.90;56.80;;;;;;5079179;28;20028;-65
2023/08/17 00:50:23;;;;;;;1.58;1.40;;;27.90;56.80;;;;;;5062651;28;20126;-65
2023/08/17 00:52:50;;;;;;;2.30;1.42;;;27.90;56.80;;;;;;5080316;28;20024;-64
2023/08/17 00:55:16;;;;;;;1.60;1.20;;;27.90;56.80;;;;;;5081970;28;20484;-64
2023/08/17 00:57:42;;;;;;;1.83;1.33;;;27.90;56.80;;;;;;5079938;28;20021;-64
2023/08/17 01:00:11;;;;;;;1.85;1.40;;;27.90;56.80;;;;;;5078629;28;20439;-66
2023/08/17 01:02:37;;;;;;;1.77;1.40;;;27.90;56.80;;;;;;5079992;28;20373;-64
2023/08/17 01:05:05;;;;;;;1.77;1.45;;;27.90;56.80;;;;;;5080599;28;20059;-64
2023/08/17 01:07:31;;;;;;;1.80;1.30;;;27.90;56.80;;;;;;5079847;28;20451;-72
2023/08/17 01:09:57;;;;;;;1.60;1.40;;;27.90;56.80;;;;;;5079444;28;20052;-71
2023/08/17 01:12:31;;;;;;;1.63;1.40;;;27.90;56.80;;;;;;5080580;28;20039;-72
2023/08/17 01:15:10;;;;;;;1.48;1.30;;;27.90;56.80;;;;;;5079103;28;20021;-72
2023/08/17 01:17:58;;;;;;;1.55;1.20;;;27.90;56.80;;;;;;5080344;28;20041;-65
2023/08/17 01:20:25;;;;;;;1.88;1.40;;;27.90;56.80;;;;;;5077531;28;20115;-65
2023/08/17 01:22:52;;;;;;;1.80;1.40;;;27.90;57.30;;;;;;5079078;28;20036;-64
2023/08/17 01:25:17;;;;;;;1.63;1.38;;;27.90;56.80;;;;;;5079669;28;20021;-63
2023/08/17 01:27:45;;;;;;;2.90;1.50;;;27.90;56.80;;;;;;5081818;28;20345;-65
2023/08/17 01:30:16;;;;;;;2.00;1.40;;;27.90;56.80;;;;;;5080469;28;20491;-65
2023/08/17 01:32:57;;;;;;;1.98;1.55;;;27.80;56.70;;;;;;5079700;28;20036;-64
2023/08/17 01:35:32;;;;;;;1.67;1.40;;;27.90;56.80;;;;;;5078915;28;20038;-64
2023/08/17 01:38:07;;;;;;;2.08;1.55;;;27.90;56.70;;;;;;5063662;28;20062;-69
2023/08/17 01:40:34;;;;;;;1.65;1.20;;;27.90;56.80;;;;;;5080198;28;20020;-69
2023/08/17 01:43:01;;;;;;;1.83;1.50;;;27.90;56.70;;;;;;5079706;28;20032;-69
2023/08/17 01:45:27;;;;;;;1.83;1.38;;;27.80;56.70;;;;;;5078258;28;20028;-69
2023/08/17 01:47:52;;;;;;;1.85;1.38;;;27.80;56.70;;;;;;5078917;28;20032;-69
2023/08/17 01:50:18;;;;;;;1.70;1.40;;;27.90;56.70;;;;;;5079217;28;20046;-69
2023/08/17 01:52:44;;;;;;;1.80;1.50;;;27.80;56.70;;;;;;5079607;28;20866;-70
2023/08/17 01:55:09;;;;;;;1.67;1.40;;;27.80;56.60;;;;;;5077335;28;20387;-68
2023/08/17 01:57:36;;;;;;;1.70;1.38;;;27.80;56.70;;;;;;5079187;28;20055;-69
2023/08/17 02:00:04;;;;;;;1.48;1.30;;;27.80;56.70;;;;;;5078330;28;20032;-69
2023/08/17 02:02:30;;;;;;;1.45;1.35;;;27.80;56.70;;;;;;5069627;28;20031;-69
2023/08/17 02:04:56;;;;;;;1.48;1.27;;;27.80;56.70;;;;;;5078102;28;20035;-68
2023/08/17 02:07:22;;;;;;;2.03;1.40;;;27.80;56.60;;;;;;5079463;28;20921;-69
2023/08/17 02:09:47;;;;;;;1.80;1.50;;;27.80;56.60;;;;;;5079130;28;20093;-68
2023/08/17 02:12:13;;;;;;;1.40;1.20;;;27.80;56.60;;;;;;5080503;28;20138;-69
2023/08/17 02:14:38;;;;;;;1.67;1.40;;;27.80;57.20;;;;;;5080299;28;20502;-69
2023/08/17 02:17:05;;;;;;;1.73;1.40;;;27.80;56.60;;;;;;5078591;28;20024;-69
2023/08/17 02:19:31;;;;;;;1.60;1.30;;;27.80;56.60;;;;;;5080013;28;20052;-69
2023/08/17 02:21:57;;;;;;;1.70;1.30;;;27.80;56.60;;;;;;5078706;28;20031;-70
2023/08/17 02:24:22;;;;;;;1.60;1.30;;;27.80;56.60;;;;;;5078974;28;20036;-69
2023/08/17 02:26:48;;;;;;;1.60;1.35;;;27.80;56.60;;;;;;5079508;28;20507;-69
2023/08/17 02:29:13;;;;;;;2.00;1.20;;;27.80;56.60;;;;;;5077952;28;20029;-70
2023/08/17 02:31:39;;;;;;;1.70;1.30;;;27.80;56.60;;;;;;5077382;28;20059;-68
2023/08/17 02:34:10;;;;;;;1.48;1.27;;;27.80;56.60;;;;;;5077870;28;20218;-69
2023/08/17 02:36:35;;;;;;;1.80;1.38;;;27.80;56.60;;;;;;5078563;28;20025;-69
2023/08/17 02:39:03;;;;;;;1.70;1.58;;;27.80;56.60;;;;;;5080378;28;20328;-70
2023/08/17 02:41:30;;;;;;;1.58;1.35;;;27.80;56.60;;;;;;5077459;28;20036;-68
2023/08/17 02:43:56;;;;;;;1.65;1.40;;;27.80;56.60;;;;;;5077146;28;20032;-69
2023/08/17 02:46:21;;;;;;;1.48;1.30;;;27.80;56.60;;;;;;5079278;28;20033;-68
2023/08/17 02:48:47;;;;;;;1.95;1.60;;;27.80;56.60;;;;;;5078283;28;20056;-61
2023/08/17 02:51:13;;;;;;;1.48;1.30;;;27.80;56.60;;;;;;5076652;28;20120;-61
2023/08/17 02:53:39;;;;;;;1.50;1.30;;;27.80;56.60;;;;;;5078368;28;20063;-62
2023/08/17 02:56:04;;;;;;;1.52;1.40;;;27.80;56.60;;;;;;5077230;28;20105;-61
2023/08/17 02:58:30;;;;;;;1.40;1.30;;;27.70;56.50;;;;;;5077233;28;20031;-60
2023/08/17 03:00:56;;;;;;;1.50;1.30;;;27.80;56.60;;;;;;5064962;28;20514;-61
2023/08/17 03:03:21;;;;;;;1.63;1.30;;;27.80;56.60;;;;;;5078484;28;20395;-63
2023/08/17 03:05:47;;;;;;;1.55;1.30;;;27.80;56.60;;;;;;5076656;28;20043;-61
2023/08/17 03:08:13;;;;;;;1.98;1.30;;;27.80;56.60;;;;;;5078986;28;20028;-61
2023/08/17 03:10:38;;;;;;;2.00;1.35;;;27.80;56.60;;;;;;5079239;28;20032;-61
2023/08/17 03:13:04;;;;;;;2.00;1.50;;;27.70;56.50;;;;;;5078638;28;20024;-61
2023/08/17 03:15:30;;;;;;;1.48;1.30;;;27.70;56.50;;;;;;5078830;28;20028;-61
2023/08/17 03:17:56;;;;;;;1.92;1.48;;;27.80;56.60;;;;;;5077543;28;20502;-62
2023/08/17 03:20:21;;;;;;;1.67;1.30;;;27.80;56.60;;;;;;5077252;28;20025;-61
2023/08/17 03:22:47;;;;;;;1.50;1.20;;;27.70;56.50;;;;;;5076135;28;20450;-62
2023/08/17 03:25:12;;;;;;;1.65;1.30;;;27.70;56.50;;;;;;5078114;28;20099;-62
2023/08/17 03:27:38;;;;;;;1.90;1.50;;;27.70;56.50;;;;;;5080800;28;20914;-71
2023/08/17 03:30:05;;;;;;;2.00;1.30;;;27.70;56.50;;;;;;5076193;28;20082;-72
2023/08/17 03:32:31;;;;;;;1.45;1.30;;;27.70;56.50;;;;;;5078258;28;20075;-71
2023/08/17 03:34:56;;;;;;;1.80;1.40;;;27.70;56.50;;;;;;5058475;28;20045;-71
2023/08/17 03:37:22;;;;;;;1.33;1.13;;;27.70;56.50;;;;;;5079117;28;20016;-69
2023/08/17 03:39:47;;;;;;;1.77;1.30;;;27.70;56.50;;;;;;5077542;28;20094;-69
2023/08/17 03:42:13;;;;;;;1.90;1.45;;;27.70;56.50;;;;;;5078564;28;20500;-68
2023/08/17 03:44:39;;;;;;;1.60;1.38;;;27.70;56.40;;;;;;5079057;28;20028;-69
2023/08/17 03:47:04;;;;;;;1.75;1.40;;;27.70;56.40;;;;;;5079950;28;20497;-68
2023/08/17 03:49:30;;;;;;;1.63;1.30;;;27.70;56.40;;;;;;5080963;28;20028;-69
2023/08/17 03:51:55;;;;;;;2.05;1.58;;;27.70;56.40;;;;;;5083904;28;20028;-69
2023/08/17 03:54:21;;;;;;;3.65;2.17;;;27.70;56.20;;;;;;5083268;28;20063;-69
2023/08/17 03:56:47;;;;;;;2.55;2.08;;;27.70;55.50;;;;;;5083331;28;20021;-70
2023/08/17 03:59:13;;;;;;;3.17;2.45;;;27.70;55.00;;;;;;5081603;28;20594;-70
2023/08/17 04:01:39;;;;;;;4.47;2.47;;;27.70;54.60;;;;;;5080716;28;20017;-71
2023/08/17 04:04:09;;;;;;;3.22;2.50;;;27.70;54.30;;;;;;5081531;28;20445;-71
2023/08/17 04:06:36;;;;;;;4.18;2.78;;;27.60;54.00;;;;;;5078886;28;20032;-72
2023/08/17 04:09:01;;;;;;;3.40;2.95;;;27.60;54.00;;;;;;5081616;28;20036;-72
2023/08/17 04:11:27;;;;;;;3.83;2.85;;;27.60;53.90;;;;;;5081697;28;20028;-71
2023/08/17 04:13:52;;;;;;;3.60;3.00;;;27.60;53.80;;;;;;5079948;28;20028;-72
2023/08/17 04:16:18;;;;;;;4.97;3.28;;;27.60;53.70;;;;;;5081359;28;20024;-71
2023/08/17 04:18:44;;;;;;;4.53;3.25;;;27.60;53.50;;;;;;5082244;28;20020;-71
2023/08/17 04:21:09;;;;;;;5.65;3.63;;;27.50;53.50;;;;;;5079074;28;20020;-73
2023/08/17 04:23:35;;;;;;;3.50;2.88;;;27.50;53.50;;;;;;5078701;28;20029;-71
2023/08/17 04:26:00;;;;;;;4.93;2.90;;;27.50;53.60;;;;;;5081090;28;20051;-72
2023/08/17 04:28:26;;;;;;;4.40;3.30;;;27.40;53.60;;;;;;5080336;28;20039;-71
2023/08/17 04:30:52;;;;;;;3.90;3.35;;;27.40;53.70;;;;;;5080271;28;20345;-71
2023/08/17 04:33:17;;;;;;;3.97;3.28;;;27.40;53.70;;;;;;5082483;28;20028;-70
2023/08/17 04:35:47;;;;;;;3.80;3.13;;;27.40;53.80;;;;;;5078852;28;20103;-71
2023/08/17 04:38:13;;;;;;;3.88;3.08;;;27.40;53.80;;;;;;5080837;28;20038;-68
2023/08/17 04:40:38;;;;;;;3.33;2.60;;;27.30;53.80;;;;;;5078722;28;20029;-67
2023/08/17 04:43:04;;;;;;;3.28;2.72;;;27.20;53.80;;;;;;5079689;28;20775;-68
2023/08/17 04:45:30;;;;;;;4.95;3.00;;;27.20;53.80;;;;;;5080737;28;20028;-68
2023/08/17 04:47:55;;;;;;;3.83;2.95;;;27.20;54.00;;;;;;5081064;28;20024;-62
2023/08/17 04:50:21;;;;;;;4.53;2.80;;;27.20;54.00;;;;;;5079115;28;20548;-61
2023/08/17 04:52:46;;;;;;;3.58;2.65;;;27.20;54.00;;;;;;5079164;28;20161;-61
2023/08/17 04:55:15;;;;;;;4.05;2.90;;;27.10;53.90;;;;;;5078893;28;20036;-61
2023/08/17 04:57:41;;;;;;;2.97;2.42;;;27.10;53.90;;;;;;5062415;28;20104;-62
2023/08/17 05:00:09;;;;;;;3.35;2.60;;;27.10;53.90;;;;;;5078626;28;20154;-62
2023/08/17 05:02:35;;;;;;;4.25;2.40;;;27.10;54.00;;;;;;5080542;28;20025;-61
2023/08/17 05:05:04;;;;;;;3.13;2.20;;;27.10;54.00;;;;;;5078262;28;20108;-62
2023/08/17 05:07:29;;;;;;;3.17;2.58;;;27.00;54.00;;;;;;5081367;28;20392;-63
2023/08/17 05:09:55;;;;;;;4.03;2.90;;;27.00;54.00;;;;;;5079895;28;20039;-62
2023/08/17 05:12:21;;;;;;;3.30;2.70;;;27.00;54.00;;;;;;5082187;28;20024;-63
2023/08/17 05:14:46;;;;;;;3.58;2.70;;;27.00;54.10;;;;;;5079157;28;20024;-62
2023/08/17 05:17:12;;;;;;;3.33;2.80;;;27.00;54.20;;;;;;5079818;28;20028;-63
2023/08/17 05:19:39;;;;;;;3.22;2.55;;;27.00;54.30;;;;;;5080605;28;20028;-62
2023/08/17 05:22:05;;;;;;;3.20;2.55;;;26.90;54.30;;;;;;5078474;28;20036;-63
2023/08/17 05:24:31;;;;;;;3.85;2.90;;;26.90;54.30;;;;;;5078730;28;20095;-62
2023/08/17 05:26:57;;;;;;;3.83;2.80;;;26.90;54.30;;;;;;5078503;28;20024;-63
2023/08/17 05:29:23;;;;;;;3.17;2.65;;;26.90;54.40;;;;;;5081709;28;20032;-62
2023/08/17 05:31:48;;;;;;;3.10;2.60;;;26.80;54.40;;;;;;5080310;28;20843;-63
2023/08/17 05:34:14;;;;;;;4.22;2.60;;;26.90;54.50;;;;;;5078701;28;20040;-62
2023/08/17 05:36:41;;;;;;;2.78;2.38;;;26.80;54.60;;;;;;5079152;28;20039;-63
2023/08/17 05:39:06;;;;;;;3.55;2.75;;;26.80;54.70;;;;;;5077726;28;20032;-63
2023/08/17 05:41:32;;;;;;;3.83;2.78;;;26.80;54.80;;;;;;5080184;28;20405;-62
2023/08/17 05:43:58;;;;;;;3.50;2.75;;;26.80;54.90;;;;;;5080750;28;20028;-62
2023/08/17 05:46:24;;;;;;;3.20;2.63;;;26.80;55.50;;;;;;5079461;28;20067;-69
2023/08/17 05:48:49;;;;;;;3.63;2.65;;;26.80;55.10;;;;;;5079616;28;20047;-69
2023/08/17 05:51:15;;;;;;;4.05;2.83;;;26.70;55.20;;;;;;5078003;28;20107;-69
2023/08/17 05:53:41;;;;;;;3.80;3.00;;;26.70;55.30;;;;;;5080635;28;20460;-70
2023/08/17 05:56:07;;;;;;;3.22;2.85;;;26.70;55.50;;;;;;5080036;28;20703;-69
2023/08/17 05:58:32;;;;;;;4.35;3.00;;;26.70;55.50;;;;;;5078102;28;20031;-62
2023/08/17 06:01:06;;;;;;;3.40;3.08;;;26.70;55.90;;;;;;5079082;28;20036;-61
2023/08/17 06:03:31;;;;;;;3.72;2.72;;;26.70;56.40;;;;;;5081055;28;20024;-61
2023/08/17 06:05:57;;;;;;;3.28;2.60;;;26.70;56.50;;;;;;5077299;28;20031;-61
2023/08/17 06:08:23;;;;;;;3.15;2.58;;;26.70;56.40;;;;;;5078414;28;20029;-62
2023/08/17 06:10:48;;;;;;;3.20;2.40;;;26.70;56.30;;;;;;5079254;28;20025;-62
2023/08/17 06:13:14;;;;;;;3.05;2.20;;;26.80;56.30;;;;;;5078028;28;20024;-61
2023/08/17 06:15:39;;;;;;;3.25;2.40;;;26.80;56.20;;;;;;5079177;28;20029;-62
2023/08/17 06:18:06;;;;;;;2.50;2.10;;;26.80;56.20;;;;;;5078016;28;20032;-68
2023/08/17 06:20:31;;;;;;;3.85;2.63;;;26.80;56.10;;;;;;5079043;28;20024;-71
2023/08/17 06:22:57;;;;;;;2.58;1.90;;;26.80;56.10;;;;;;5078135;28;20033;-71
2023/08/17 06:25:22;;;;;;;4.00;2.40;;;26.80;56.10;;;;;;5079048;28;20133;-70
2023/08/17 06:27:51;;;;;;;2.50;2.30;;;26.90;56.10;;;;;;5079273;28;20029;-70
2023/08/17 06:30:18;;;;;;;3.90;2.70;;;26.90;56.10;;;;;;5079528;28;20036;-71
2023/08/17 06:32:43;;;;;;;3.92;2.60;;;26.90;56.10;;;;;;5076854;28;20035;-70
2023/08/17 06:35:09;;;;;;;3.90;2.90;;;26.90;56.00;;;;;;5080201;28;20073;-72
2023/08/17 06:37:35;;;;;;;2.95;2.60;;;26.90;56.10;;;;;;5077303;28;20064;-71
2023/08/17 06:40:02;;;;;;;3.95;2.70;;;27.00;55.90;;;;;;5077575;28;20039;-70
2023/08/17 06:42:28;;;;;;;2.92;2.50;;;27.00;55.80;;;;;;5079689;28;20464;-70
2023/08/17 06:44:54;;;;;;;3.83;2.72;;;27.00;55.80;;;;;;5078552;28;20039;-71
2023/08/17 06:47:19;;;;;;;2.97;2.67;;;27.00;55.80;;;;;;5079950;28;20033;-69
2023/08/17 06:49:45;;;;;;;3.25;2.50;;;27.10;55.80;;;;;;5078425;28;20103;-70
2023/08/17 06:52:10;;;;;;;5.43;2.90;;;27.10;55.70;;;;;;5077263;28;20395;-71
2023/08/17 06:54:36;;;;;;;3.50;2.92;;;27.10;55.70;;;;;;5079551;28;20032;-70
2023/08/17 06:57:01;;;;;;;3.40;2.60;;;27.10;55.90;;;;;;5076432;28;20027;-70
2023/08/17 06:59:27;;;;;;;3.33;2.65;;;27.10;56.00;;;;;;5078077;28;20029;-68
2023/08/17 07:01:53;;;;;;;3.65;2.60;;;27.20;56.10;;;;;;5066188;28;20123;-70
2023/08/17 07:04:18;;;;;;;2.92;2.50;;;27.20;56.10;;;;;;5077056;28;20043;-70
2023/08/17 07:06:44;;;;;;;3.10;2.58;;;27.20;56.10;;;;;;5075679;28;20483;-63
2023/08/17 07:09:12;;;;;;;3.20;2.78;;;27.30;56.20;;;;;;5078462;28;20028;-63
2023/08/17 07:11:38;;;;;;;3.10;2.40;;;27.30;56.10;;;;;;5080942;28;20438;-63
2023/08/17 07:14:06;;;;;;;2.85;2.40;;;27.30;56.00;;;;;;5077532;28;20488;-64
2023/08/17 07:16:32;;;;;;;3.40;2.22;;;27.40;56.10;;;;;;5078816;28;20436;-64
2023/08/17 07:18:57;;;;;;;3.40;2.25;;;27.40;56.00;;;;;;5076096;28;20111;-64
2023/08/17 07:21:23;;;;;;;3.90;2.70;;;27.40;55.80;;;;;;5082043;28;20407;-64
2023/08/17 07:23:50;;;;;;;2.80;2.35;;;27.40;55.70;;;;;;5084144;28;20023;-64
2023/08/17 07:26:18;;;;;;;2.72;2.10;;;27.40;55.70;;;;;;5082652;28;20032;-63
2023/08/17 07:28:45;;;;;;;2.92;2.25;;;27.50;55.60;;;;;;5086238;28;20547;-63
2023/08/17 07:31:10;;;;;;;3.40;2.47;;;27.50;55.50;;;;;;5085721;28;20056;-64
2023/08/17 07:33:36;;;;;;;3.25;2.72;;;27.50;55.50;;;;;;5087590;28;20067;-65
2023/08/17 07:36:02;;;;;;;2.85;2.42;;;27.50;55.70;;;;;;5086626;28;20035;-64
2023/08/17 07:38:28;;;;;;;3.08;2.50;;;27.60;56.20;;;;;;5088952;28;20475;-64
2023/08/17 07:40:55;;;;;;;2.85;2.38;;;27.60;56.20;;;;;;5082784;28;20029;-63
2023/08/17 07:43:21;;;;;;;3.10;2.45;;;27.60;56.30;;;;;;5086016;28;20694;-64
2023/08/17 07:45:58;;;;;;;2.78;2.25;;;27.70;56.40;;;;;;5084980;28;20107;-64
2023/08/17 07:48:24;;;;;;;2.80;2.40;;;27.70;57.00;;;;;;5085757;28;20447;-63
2023/08/17 07:50:50;;;;;;;3.03;2.40;;;27.70;56.50;;;;;;5086383;28;20059;-64
2023/08/17 07:53:17;;;;;;;3.53;2.40;;;27.70;56.40;;;;;;5083343;28;20518;-64
2023/08/17 07:55:43;;;;;;;3.42;2.20;;;27.70;56.40;;;;;;5085395;28;20451;-64
2023/08/17 07:58:08;;;;;;;2.80;2.28;;;27.80;56.40;;;;;;5084563;28;20052;-63
2023/08/17 08:00:34;;;;;;;3.00;2.38;;;27.80;56.50;;;;;;5081563;28;20115;-63
2023/08/17 08:02:59;;;;;;;2.97;2.30;;;27.90;56.70;;;;;;5084878;28;20447;-63
2023/08/17 08:05:26;;;;;;;2.90;2.22;;;27.90;56.70;;;;;;5084853;28;20032;-64
2023/08/17 08:07:52;;;;;;;2.88;2.25;;;27.90;56.80;;;;;;5082913;28;20439;-65
2023/08/17 08:10:18;;;;;;;3.50;2.42;;;27.90;57.00;;;;;;5084578;28;20060;-64
2023/08/17 08:12:44;;;;;;;3.63;2.33;;;28.00;57.30;;;;;;5084240;28;20447;-64
2023/08/17 08:15:10;;;;;;;2.58;2.30;;;28.00;57.10;;;;;;5082956;28;20471;-64
2023/08/17 08:17:35;;;;;;;2.97;2.45;;;28.00;56.90;;;;;;5083888;28;20032;-68
2023/08/17 08:20:01;;;;;;;3.47;2.50;;;28.00;56.90;;;;;;5083733;28;20059;-69
2023/08/17 08:22:27;;;;;;;2.85;2.35;;;28.10;56.80;;;;;;5083228;28;20024;-70
2023/08/17 08:24:52;;;;;;;3.03;2.22;;;28.10;56.90;;;;;;5084401;28;20035;-69
2023/08/17 08:27:18;;;;;;;2.92;2.40;;;28.10;56.80;;;;;;5083329;28;20038;-70
2023/08/17 08:29:44;;;;;;;4.57;2.50;;;28.10;56.90;;;;;;5084479;28;20040;-69
2023/08/17 08:32:10;;;;;;;2.90;2.25;;;28.20;56.90;;;;;;5081845;28;20020;-70
2023/08/17 08:34:35;;;;;;;2.97;2.20;;;28.20;57.20;;;;;;5082456;28;20066;-71
2023/08/17 08:37:01;;;;;;;2.53;2.15;;;28.20;57.00;;;;;;5081320;28;20020;-69
2023/08/17 08:39:27;;;;;;;3.15;2.20;;;28.30;57.10;;;;;;5080693;28;20020;-69
2023/08/17 08:41:53;;;;;;;3.80;2.20;;;28.30;57.00;;;;;;5081931;28;20024;-69
2023/08/17 08:44:19;;;;;;;2.88;2.22;;;28.30;56.80;;;;;;5080430;28;20039;-69
2023/08/17 08:46:45;;;;;;;3.17;2.50;;;28.30;57.20;;;;;;5080727;28;20039;-69
2023/08/17 08:49:12;;;;;;;2.90;2.35;;;28.30;57.10;;;;;;5080450;28;20029;-68
2023/08/17 08:51:45;;;;;;;2.90;2.40;;;28.30;57.00;;;;;;5078235;28;20483;-69
2023/08/17 08:54:13;;;;;;;3.47;2.45;;;28.40;57.30;;;;;;5079195;28;20035;-68
2023/08/17 08:56:42;;;;;;;3.00;2.40;;;28.40;57.10;;;;;;5082037;28;20479;-68
2023/08/17 08:59:08;;;;;;;3.03;2.33;;;28.40;57.00;;;;;;5081538;28;20107;-70
2023/08/17 09:01:34;;;;;;;2.92;2.22;;;28.40;56.90;;;;;;5081565;28;20172;-70
2023/08/17 09:04:00;;;;;;;5.18;2.20;;;28.50;57.00;;;;;;5079134;28;20016;-69
2023/08/17 09:06:27;;;;;;;2.50;2.30;;;28.50;56.90;;;;;;5079669;28;20020;-67
2023/08/17 09:08:53;;;;;;;2.60;2.20;;;28.50;56.80;;;;;;5080789;28;20460;-70
2023/08/17 09:11:18;;;;;;;2.92;2.40;;;28.50;56.80;;;;;;5081539;28;20040;-70
2023/08/17 09:13:44;;;;;;;2.85;2.15;;;28.60;56.80;;;;;;5081949;28;20051;-67
2023/08/17 09:16:10;;;;;;;2.92;2.22;;;28.60;57.40;;;;;;5081613;28;20387;-70
2023/08/17 09:18:35;;;;;;;2.72;2.00;;;28.60;56.80;;;;;;5081092;28;20024;-64
2023/08/17 09:21:01;;;;;;;3.30;2.10;;;28.60;56.90;;;;;;5078489;28;20027;-65
2023/08/17 09:23:27;;;;;;;3.00;2.40;;;28.60;56.80;;;;;;5078873;28;20036;-62
2023/08/17 09:25:57;;;;;;;2.60;2.20;;;28.70;56.70;;;;;;5081444;28;20035;-65
2023/08/17 09:28:23;;;;;;;2.88;2.50;;;28.70;56.60;;;;;;5079127;28;20108;-71
2023/08/17 09:31:05;;;;;;;2.53;2.10;;;28.70;56.50;;;;;;5080483;28;20130;-69
2023/08/17 09:33:36;;;;;;;2.85;2.00;;;28.80;56.50;;;;;;5078318;28;20060;-70
2023/08/17 09:36:02;;;;;;;3.08;2.22;;;28.80;56.80;;;;;;5084694;28;20020;-72
2023/08/17 09:38:28;;;;;;;3.30;2.28;;;28.80;56.40;;;;;;5081131;28;20020;-72
2023/08/17 09:40:54;;;;;;;2.67;2.22;;;28.80;56.00;;;;;;5080432;28;20031;-72
2023/08/17 09:43:20;;;;;;;2.22;2.03;;;28.80;55.60;;;;;;5080156;28;20526;-71
2023/08/17 09:45:49;;;;;;;3.20;2.35;;;28.90;56.30;;;;;;5077760;28;20032;-72
2023/08/17 09:48:19;;;;;;;3.22;2.05;;;28.90;55.90;;;;;;5082019;28;20028;-63
2023/08/17 09:50:46;;;;;;;2.67;2.20;;;28.90;55.80;;;;;;5079442;28;20060;-62
2023/08/17 09:53:17;;;;;;;2.95;2.15;;;28.90;55.80;;;;;;5079555;28;20032;-63
2023/08/17 09:55:44;;;;;;;2.72;2.10;;;28.90;55.60;;;;;;5079414;28;20032;-63
2023/08/17 09:58:14;;;;;;;2.60;2.10;;;28.90;55.60;;;;;;5080904;28;20077;-62
2023/08/17 10:00:45;;;;;;;3.03;2.13;;;28.90;55.50;;;;;;5064863;28;20030;-62
2023/08/17 10:03:13;;;;;;;2.47;1.98;;;29.00;55.50;;;;;;5079853;28;20020;-63
2023/08/17 10:05:41;;;;;;;3.58;1.88;;;29.00;55.50;;;;;;5080091;28;20116;-63
2023/08/17 10:08:10;;;;;;;3.15;2.22;;;29.00;55.50;;;;;;5077729;28;20032;-64
2023/08/17 10:10:40;;;;;;;2.37;1.90;;;29.00;55.70;;;;;;5080193;28;20024;-63
2023/08/17 10:13:32;;;;;;;2.30;2.00;;;29.10;55.80;;;;;;5079590;28;20132;-65
2023/08/17 10:16:08;;;;;;;2.70;2.00;;;29.10;55.60;;;;;;5065826;28;20024;-63
2023/08/17 10:18:34;;;;;;;2.55;1.80;;;29.10;55.40;;;;;;5077990;28;20021;-63
2023/08/17 10:21:07;;;;;;;2.50;2.05;;;29.10;55.30;;;;;;5079190;28;20480;-62
2023/08/17 10:23:34;;;;;;;2.33;1.92;;;29.10;55.20;;;;;;5076447;28;20515;-63
2023/08/17 10:26:02;;;;;;;2.47;1.92;;;29.20;55.50;;;;;;5079141;28;20115;-65
2023/08/17 10:28:30;;;;;;;2.50;1.80;;;29.20;55.50;;;;;;5079160;28;20074;-63
2023/08/17 10:30:56;;;;;;;4.18;1.92;;;29.20;55.50;;;;;;5077963;28;20065;-62
2023/08/17 10:33:23;;;;;;;2.78;1.90;;;29.20;55.40;;;;;;5078688;28;20029;-62
2023/08/17 10:35:49;;;;;;;2.30;1.98;;;29.20;55.40;;;;;;5080827;28;20094;-62
2023/08/17 10:38:16;;;;;;;2.40;1.90;;;29.30;55.30;;;;;;5076478;28;20041;-64
2023/08/17 10:40:42;;;;;;;2.30;1.77;;;29.30;55.30;;;;;;5081234;28;20031;-65
2023/08/17 10:43:08;;;;;;;2.55;1.90;;;29.30;55.30;;;;;;5079610;28;20032;-65
2023/08/17 10:45:37;;;;;;;2.72;1.88;;;29.30;55.70;;;;;;5078646;28;20035;-64
2023/08/17 10:48:08;;;;;;;2.10;1.77;;;29.30;55.30;;;;;;5079115;28;20058;-64
2023/08/17 10:50:38;;;;;;;2.97;2.38;;;29.40;55.40;;;;;;5076765;28;20123;-66
2023/08/17 10:53:08;;;;;;;2.40;1.92;;;29.40;55.30;;;;;;5077660;28;20047;-64
2023/08/17 10:55:44;;;;;;;2.58;1.98;;;29.40;55.40;;;;;;5077432;28;20067;-65
2023/08/17 10:58:10;;;;;;;2.28;1.83;;;29.40;55.50;;;;;;5077598;28;20388;-71
2023/08/17 11:00:38;;;;;;;2.72;2.00;;;29.40;55.50;;;;;;5077066;28;20063;-70
2023/08/17 11:03:05;;;;;;;2.17;1.80;;;29.50;55.50;;;;;;5076395;28;20035;-70
2023/08/17 11:05:44;;;;;;;2.20;1.88;;;29.50;55.50;;;;;;5076184;28;20029;-71
2023/08/17 11:08:33;;;;;;;2.40;1.80;;;29.50;55.40;;;;;;5078676;28;20031;-71
2023/08/17 11:11:03;;;;;;;2.40;1.80;;;29.50;55.40;;;;;;5062662;28;20040;-70
2023/08/17 11:13:31;;;;;;;2.60;1.92;;;29.50;55.40;;;;;;5078344;28;20501;-70
2023/08/17 11:15:59;;;;;;;2.40;1.90;;;29.50;55.20;;;;;;5077397;28;20471;-71
2023/08/17 11:18:24;;;;;;;1.90;1.60;;;29.50;54.90;;;;;;5077012;28;20024;-71
2023/08/17 11:20:51;;;;;;;1.92;1.67;;;29.60;54.80;;;;;;5077440;28;20365;-70
2023/08/17 11:23:18;;;;;;;2.85;1.90;;;29.60;54.80;;;;;;5077405;28;20048;-70
2023/08/17 11:25:44;;;;;;;2.28;1.80;;;29.60;54.90;;;;;;5080218;28;20036;-71
2023/08/17 11:28:10;;;;;;;3.58;1.95;;;29.60;54.80;;;;;;5079514;28;20107;-71
2023/08/17 11:30:38;;;;;;;2.20;1.80;;;29.60;54.80;;;;;;5078443;28;20108;-71
2023/08/17 11:33:10;;;;;;;3.00;1.80;;;29.70;54.90;;;;;;5059781;28;20673;-71
2023/08/17 11:35:39;;;;;;;1.95;1.60;;;29.70;54.90;;;;;;5058647;28;20466;-71
2023/08/17 11:38:05;;;;;;;2.08;1.70;;;29.70;54.90;;;;;;5056808;28;20060;-65
2023/08/17 11:40:31;;;;;;;2.40;1.80;;;29.70;54.90;;;;;;5077443;28;20047;-66
2023/08/17 11:42:58;;;;;;;2.38;1.80;;;29.70;54.80;;;;;;5079821;28;20104;-64
2023/08/17 11:45:23;;;;;;;2.03;1.73;;;29.70;54.90;;;;;;5077640;28;20085;-65
2023/08/17 11:47:49;;;;;;;2.28;1.63;;;29.70;54.80;;;;;;5079711;28;20443;-69
2023/08/17 11:50:15;;;;;;;2.38;1.63;;;29.70;54.80;;;;;;5077885;28;20036;-70
2023/08/17 11:52:41;;;;;;;2.10;1.70;;;29.80;55.00;;;;;;5078830;28;20102;-70
2023/08/17 11:55:11;;;;;;;2.05;1.50;;;29.80;55.10;;;;;;5074715;28;20576;-69
2023/08/17 11:57:38;;;;;;;2.38;1.60;;;29.80;55.10;;;;;;5077563;28;20028;-69
2023/08/17 12:00:12;;;;;;;2.00;1.63;;;29.80;55.20;;;;;;5077788;28;20111;-70
2023/08/17 12:02:42;;;;;;;1.80;1.50;;;29.80;55.20;;;;;;5075882;28;20059;-69
2023/08/17 12:05:09;;;;;;;2.47;1.80;;;29.80;55.10;;;;;;5078784;28;20751;-69
2023/08/17 12:07:35;;;;;;;2.03;1.67;;;29.90;55.10;;;;;;5079151;28;20029;-71
2023/08/17 12:10:04;;;;;;;2.25;1.77;;;29.90;55.10;;;;;;5080645;28;20111;-71
2023/08/17 12:12:29;;;;;;;1.70;1.50;;;29.90;55.00;;;;;;5081718;28;20094;-71
2023/08/17 12:14:56;;;;;;;1.80;1.55;;;29.90;55.00;;;;;;5081031;28;20040;-71
2023/08/17 12:17:22;;;;;;;1.63;1.40;;;29.90;55.10;;;;;;5081589;28;20032;-72
2023/08/17 12:19:54;;;;;;;2.08;1.70;;;29.90;55.10;;;;;;5080179;28;20487;-71
2023/08/17 12:22:24;;;;;;;2.10;1.60;;;30.00;55.10;;;;;;5081415;28;20108;-70
2023/08/17 12:24:49;;;;;;;1.92;1.50;;;30.00;55.30;;;;;;5078567;28;20040;-72
2023/08/17 12:27:15;;;;;;;2.38;1.83;;;30.00;55.70;;;;;;5081242;28;20452;-73
2023/08/17 12:29:48;;;;;;;2.97;1.50;;;30.00;55.50;;;;;;5081899;28;20093;-72
2023/08/17 12:32:15;;;;;;;1.88;1.50;;;30.00;55.40;;;;;;5080870;28;20690;-71
2023/08/17 12:34:41;;;;;;;2.45;1.60;;;30.00;55.30;;;;;;5081101;28;20428;-71
2023/08/17 12:37:12;;;;;;;1.98;1.50;;;30.10;55.50;;;;;;5079502;28;20024;-73
2023/08/17 12:39:38;;;;;;;2.20;1.50;;;30.00;55.30;;;;;;5081235;28;20031;-73
2023/08/17 12:42:05;;;;;;;2.00;1.63;;;30.00;55.30;;;;;;5080040;28;20029;-71
2023/08/17 12:44:31;;;;;;;1.80;1.30;;;30.00;55.30;;;;;;5078615;28;20032;-72
2023/08/17 12:46:56;;;;;;;1.85;1.40;;;30.10;55.30;;;;;;5065232;28;20028;-72